Time;durP1;ratioP1;P1;durP2;ratioP2;P2;SDS_P1;SDS_P2;PMS_P1;PMS_P2;Temp;Humidity;BMP_temperature;BMP_pressure;BME280_temperature;BME280_humidity;BME280_pressure;Samples;Min_cycle;Max_cycle;Signal;HPM_P1;HPM_P2
2021/03/31 00:02:19;;;;;;;55.75;30.38;;;;;;;;;;5097173;28;20059;-85
2021/03/31 00:04:45;;;;;;;52.20;32.03;;;;;;;;;;5097561;28;20341;-85
2021/03/31 00:07:11;;;;;;;55.20;34.53;;;;;;;;;;5097317;28;20024;-84
2021/03/31 00:09:38;;;;;;;61.25;35.00;;;;;;;;;;5097651;28;20042;-85
2021/03/31 00:12:05;;;;;;;68.45;38.03;;;;;;;;;;5097464;28;20108;-85
2021/03/31 00:14:31;;;;;;;60.45;36.15;;;;;;;;;;5097364;28;20107;-85
2021/03/31 00:16:57;;;;;;;60.90;35.17;;;;;;;;;;5096584;28;20040;-85
2021/03/31 00:19:23;;;;;;;61.47;35.05;;;;;;;;;;5096510;28;20082;-85
2021/03/31 00:21:49;;;;;;;57.92;35.33;;;;;;;;;;5096147;28;20122;-85
2021/03/31 00:24:15;;;;;;;56.30;34.58;;;;;;;;;;5096147;28;20023;-85
2021/03/31 00:26:41;;;;;;;55.45;33.22;;;;;;;;;;5097281;28;20056;-85
2021/03/31 00:29:07;;;;;;;55.80;34.08;;;;;;;;;;5097303;28;20410;-85
2021/03/31 00:31:34;;;;;;;57.65;32.55;;;;;;;;;;5096066;28;20044;-85
2021/03/31 00:34:00;;;;;;;56.38;32.97;;;;;;;;;;5097622;28;20031;-85
2021/03/31 00:36:26;;;;;;;62.95;34.85;;;;;;;;;;5096214;28;20023;-85
2021/03/31 00:38:52;;;;;;;61.22;36.67;;;;;;;;;;5097301;28;20020;-86
2021/03/31 00:41:18;;;;;;;56.05;34.20;;;;;;;;;;5097301;28;20031;-85
2021/03/31 00:43:44;;;;;;;60.65;34.20;;;;;;;;;;5085946;28;20013;-85
2021/03/31 00:46:10;;;;;;;58.53;33.00;;;;;;;;;;5076971;28;20074;-85
2021/03/31 00:48:36;;;;;;;55.58;32.85;;;;;;;;;;5076937;28;20017;-86
2021/03/31 00:51:03;;;;;;;57.70;32.58;;;;;;;;;;5076845;28;20027;-84
2021/03/31 00:53:29;;;;;;;56.83;33.03;;;;;;;;;;5076707;28;20044;-84
2021/03/31 00:55:55;;;;;;;57.35;34.05;;;;;;;;;;5076934;28;20035;-84
2021/03/31 00:58:21;;;;;;;59.60;34.55;;;;;;;;;;5076551;28;20061;-84
2021/03/31 01:00:47;;;;;;;60.20;34.80;;;;;;;;;;5076246;28;20040;-84
2021/03/31 01:03:13;;;;;;;58.40;35.55;;;;;;;;;;5080326;28;20020;-84
2021/03/31 01:05:40;;;;;;;62.85;36.75;;;;;;;;;;5095114;28;20422;-86
2021/03/31 01:08:06;;;;;;;61.22;36.38;;;;;;;;;;5095874;28;20064;-85
2021/03/31 01:10:43;;;;;;;64.65;36.20;;;;;;;;;;5100423;28;20021;-85
2021/03/31 01:13:30;;;;;;;61.63;36.00;;;;;;;;;;5094068;28;20029;-84
2021/03/31 01:16:09;;;;;;;61.33;36.35;;;;;;;;;;5080100;28;20398;-83
2021/03/31 01:18:42;;;;;;;68.10;37.10;;;;;;;;;;5079550;28;20052;-84
2021/03/31 01:21:23;;;;;;;62.42;37.00;;;;;;;;;;5078908;28;20024;-83
2021/03/31 01:24:08;;;;;;;60.97;35.83;;;;;;;;;;5078920;28;20031;-83
2021/03/31 01:26:48;;;;;;;56.92;35.10;;;;;;;;;;5079910;28;20028;-84
2021/03/31 01:29:33;;;;;;;62.35;37.00;;;;;;;;;;5079592;28;20059;-85
2021/03/31 01:32:02;;;;;;;58.60;36.50;;;;;;;;;;5079938;28;20334;-85
2021/03/31 01:34:42;;;;;;;75.25;40.35;;;;;;;;;;5079803;28;20028;-85
2021/03/31 01:37:34;;;;;;;89.57;50.13;;;;;;;;;;5079674;28;20049;-85
2021/03/31 01:40:02;;;;;;;106.95;56.67;;;;;;;;;;5077806;28;20362;-86
2021/03/31 01:42:29;;;;;;;106.38;56.75;;;;;;;;;;5078965;28;20032;-86
2021/03/31 01:45:00;;;;;;;88.20;49.00;;;;;;;;;;5099149;28;20336;-86
2021/03/31 01:47:26;;;;;;;84.88;47.72;;;;;;;;;;5099756;28;20016;-86
2021/03/31 01:49:53;;;;;;;70.50;43.08;;;;;;;;;;5099523;28;20052;-86
2021/03/31 01:52:21;;;;;;;69.18;41.42;;;;;;;;;;5099659;28;20024;-86
2021/03/31 01:54:47;;;;;;;63.13;37.17;;;;;;;;;;5099945;28;20103;-86
2021/03/31 01:57:13;;;;;;;67.68;38.45;;;;;;;;;;5099831;28;20027;-86
2021/03/31 01:59:41;;;;;;;66.28;38.45;;;;;;;;;;5099596;28;20052;-86
2021/03/31 02:02:09;;;;;;;70.82;43.38;;;;;;;;;;5099229;28;20056;-86
2021/03/31 02:04:36;;;;;;;66.50;42.30;;;;;;;;;;5098814;28;20447;-86
2021/03/31 02:07:06;;;;;;;57.25;34.38;;;;;;;;;;5099327;28;20031;-87
2021/03/31 02:09:33;;;;;;;59.53;34.10;;;;;;;;;;5099688;28;20138;-87
2021/03/31 02:12:01;;;;;;;55.22;34.17;;;;;;;;;;5098447;28;20028;-86
2021/03/31 02:14:28;;;;;;;59.10;36.00;;;;;;;;;;5099006;28;20426;-86
2021/03/31 02:16:54;;;;;;;56.15;35.65;;;;;;;;;;5112187;28;20106;-86
2021/03/31 02:19:20;;;;;;;56.63;35.75;;;;;;;;;;5118610;28;20026;-86
2021/03/31 02:21:48;;;;;;;57.22;34.95;;;;;;;;;;5118435;28;20413;-86
2021/03/31 02:24:15;;;;;;;66.00;38.03;;;;;;;;;;5119755;28;20082;-86
2021/03/31 02:26:41;;;;;;;60.40;39.20;;;;;;;;;;5118754;28;20087;-85
2021/03/31 02:29:08;;;;;;;63.45;40.22;;;;;;;;;;5119403;28;20048;-85
2021/03/31 02:31:35;;;;;;;75.40;41.40;;;;;;;;;;5119559;28;20286;-85
2021/03/31 02:34:02;;;;;;;66.88;40.75;;;;;;;;;;5118925;28;20410;-85
2021/03/31 02:36:29;;;;;;;69.28;40.22;;;;;;;;;;5118320;28;20134;-85
2021/03/31 02:38:55;;;;;;;63.42;39.20;;;;;;;;;;5119416;28;20031;-85
2021/03/31 02:41:22;;;;;;;63.17;39.53;;;;;;;;;;5119177;28;20031;-86
2021/03/31 02:43:48;;;;;;;59.47;38.58;;;;;;;;;;5107253;28;20031;-85
2021/03/31 02:46:17;;;;;;;70.10;40.78;;;;;;;;;;5098983;28;20026;-85
2021/03/31 02:48:43;;;;;;;64.03;40.47;;;;;;;;;;5098651;28;20020;-86
2021/03/31 02:51:10;;;;;;;61.38;39.95;;;;;;;;;;5098531;28;20046;-85
2021/03/31 02:53:37;;;;;;;62.38;38.67;;;;;;;;;;5098819;28;20035;-86
2021/03/31 02:56:05;;;;;;;62.05;37.53;;;;;;;;;;5098916;28;20092;-86
2021/03/31 02:58:31;;;;;;;57.38;37.67;;;;;;;;;;5098493;28;20036;-86
2021/03/31 03:00:58;;;;;;;58.47;37.08;;;;;;;;;;5097230;28;20056;-86
2021/03/31 03:03:24;;;;;;;59.35;37.20;;;;;;;;;;5098537;28;20023;-86
2021/03/31 03:05:50;;;;;;;62.42;35.53;;;;;;;;;;5098423;28;20016;-85
2021/03/31 03:08:16;;;;;;;54.20;35.13;;;;;;;;;;5097290;28;20028;-85
2021/03/31 03:10:43;;;;;;;51.95;33.53;;;;;;;;;;5098552;28;20028;-87
2021/03/31 03:13:09;;;;;;;61.85;36.10;;;;;;;;;;5098234;28;20070;-87
2021/03/31 03:15:36;;;;;;;56.28;34.13;;;;;;;;;;5097953;28;20043;-87
2021/03/31 03:18:02;;;;;;;59.55;33.67;;;;;;;;;;5097849;28;20020;-87
2021/03/31 03:20:28;;;;;;;64.25;35.47;;;;;;;;;;5097694;28;20070;-86
2021/03/31 03:22:55;;;;;;;60.50;34.72;;;;;;;;;;5098233;28;20042;-85
2021/03/31 03:25:23;;;;;;;62.08;36.05;;;;;;;;;;5098115;28;20104;-86
2021/03/31 03:27:49;;;;;;;58.80;34.70;;;;;;;;;;5098026;28;20036;-86
2021/03/31 03:30:16;;;;;;;60.70;35.75;;;;;;;;;;5097709;28;20028;-85
2021/03/31 03:32:44;;;;;;;66.30;35.33;;;;;;;;;;5097450;28;20031;-85
2021/03/31 03:35:12;;;;;;;66.07;37.05;;;;;;;;;;5096811;28;20027;-86
2021/03/31 03:37:38;;;;;;;63.47;36.80;;;;;;;;;;5096705;28;20028;-85
2021/03/31 03:40:05;;;;;;;64.88;35.15;;;;;;;;;;5096802;28;20028;-85
2021/03/31 03:42:31;;;;;;;59.13;33.35;;;;;;;;;;5097185;28;20414;-84
2021/03/31 03:45:01;;;;;;;58.22;31.15;;;;;;;;;;5097733;28;20020;-84
2021/03/31 03:47:27;;;;;;;48.25;30.20;;;;;;;;;;5097371;28;20436;-85
2021/03/31 03:49:53;;;;;;;47.63;28.73;;;;;;;;;;5097673;28;20020;-84
2021/03/31 03:52:21;;;;;;;46.70;30.02;;;;;;;;;;5096968;28;20352;-85
2021/03/31 03:54:53;;;;;;;45.03;29.75;;;;;;;;;;5097791;28;20054;-85
2021/03/31 03:57:26;;;;;;;54.42;31.05;;;;;;;;;;5097478;28;20024;-85
2021/03/31 03:59:53;;;;;;;53.15;32.53;;;;;;;;;;5097501;28;20345;-84
2021/03/31 04:02:19;;;;;;;61.55;35.15;;;;;;;;;;5097037;28;20056;-85
2021/03/31 04:04:45;;;;;;;81.65;44.28;;;;;;;;;;5097684;28;20069;-85
2021/03/31 04:07:11;;;;;;;91.20;50.88;;;;;;;;;;5096404;28;20036;-85
2021/03/31 04:09:38;;;;;;;103.50;54.85;;;;;;;;;;5097444;28;20073;-85
2021/03/31 04:12:05;;;;;;;121.70;54.08;;;;;;;;;;5097404;28;20031;-85
2021/03/31 04:14:31;;;;;;;110.75;47.38;;;;;;;;;;5080158;28;20025;-85
2021/03/31 04:16:57;;;;;;;76.00;36.97;;;;;;;;;;5077110;28;20028;-84
2021/03/31 04:19:24;;;;;;;53.63;32.03;;;;;;;;;;5075954;28;20078;-85
2021/03/31 04:21:50;;;;;;;57.17;31.85;;;;;;;;;;5077143;28;20349;-85
2021/03/31 04:24:17;;;;;;;53.10;31.33;;;;;;;;;;5076886;28;20025;-84
2021/03/31 04:26:44;;;;;;;47.42;29.50;;;;;;;;;;5076992;28;20407;-85
2021/03/31 04:29:11;;;;;;;50.42;30.30;;;;;;;;;;5076729;28;20108;-84
2021/03/31 04:31:38;;;;;;;47.60;30.10;;;;;;;;;;5077187;28;20040;-85
2021/03/31 04:34:04;;;;;;;49.25;28.42;;;;;;;;;;5076966;28;20082;-85
2021/03/31 04:36:31;;;;;;;47.15;27.42;;;;;;;;;;5077165;28;20319;-84
2021/03/31 04:38:57;;;;;;;45.88;26.35;;;;;;;;;;5077097;28;20067;-85
2021/03/31 04:41:23;;;;;;;47.22;26.52;;;;;;;;;;5076926;28;20082;-84
2021/03/31 04:43:49;;;;;;;44.80;26.98;;;;;;;;;;5087830;28;20050;-85
2021/03/31 04:46:15;;;;;;;42.38;26.27;;;;;;;;;;5099698;28;20062;-85
2021/03/31 04:48:42;;;;;;;45.58;26.73;;;;;;;;;;5101026;28;20020;-85
2021/03/31 04:51:08;;;;;;;42.55;25.42;;;;;;;;;;5100949;28;20425;-85
2021/03/31 04:53:35;;;;;;;45.95;25.23;;;;;;;;;;5101273;28;20025;-85
2021/03/31 04:56:01;;;;;;;44.42;24.40;;;;;;;;;;5101114;28;20424;-85
2021/03/31 04:58:27;;;;;;;40.33;23.08;;;;;;;;;;5101112;28;20121;-85
2021/03/31 05:00:53;;;;;;;35.95;23.20;;;;;;;;;;5100697;28;20051;-86
2021/03/31 05:03:19;;;;;;;39.47;22.92;;;;;;;;;;5101007;28;20028;-85
2021/03/31 05:05:45;;;;;;;33.60;22.50;;;;;;;;;;5101156;28;20020;-86
2021/03/31 05:08:11;;;;;;;42.47;22.58;;;;;;;;;;5099968;28;20028;-86
2021/03/31 05:10:38;;;;;;;43.60;24.42;;;;;;;;;;5099714;28;20085;-86
2021/03/31 05:13:04;;;;;;;42.63;24.52;;;;;;;;;;5100860;28;20451;-85
2021/03/31 05:15:31;;;;;;;44.15;24.50;;;;;;;;;;5100601;28;20111;-86
2021/03/31 05:17:57;;;;;;;39.85;24.48;;;;;;;;;;5100553;28;20016;-85
2021/03/31 05:20:23;;;;;;;36.85;22.60;;;;;;;;;;5100537;28;20016;-86
2021/03/31 05:22:49;;;;;;;37.33;24.23;;;;;;;;;;5100539;28;20031;-85
2021/03/31 05:25:15;;;;;;;44.60;24.77;;;;;;;;;;5099425;28;20421;-85
2021/03/31 05:27:41;;;;;;;40.78;23.20;;;;;;;;;;5099427;28;20024;-85
2021/03/31 05:30:08;;;;;;;37.55;22.17;;;;;;;;;;5100498;28;20073;-84
2021/03/31 05:32:34;;;;;;;32.08;20.67;;;;;;;;;;5100204;28;20441;-84
2021/03/31 05:35:00;;;;;;;33.00;21.73;;;;;;;;;;5100594;28;20089;-85
2021/03/31 05:37:26;;;;;;;40.75;22.33;;;;;;;;;;5100398;28;20028;-85
2021/03/31 05:39:52;;;;;;;32.67;21.48;;;;;;;;;;5099169;28;20360;-85
2021/03/31 05:42:19;;;;;;;34.95;21.55;;;;;;;;;;5098952;28;20081;-84
2021/03/31 05:44:45;;;;;;;30.45;19.80;;;;;;;;;;5100085;28;20023;-84
2021/03/31 05:47:18;;;;;;;31.55;18.58;;;;;;;;;;5098994;28;20082;-84
2021/03/31 05:49:46;;;;;;;40.03;20.70;;;;;;;;;;5100089;28;20073;-84
2021/03/31 05:52:12;;;;;;;35.95;23.45;;;;;;;;;;5100167;28;20024;-85
2021/03/31 05:54:38;;;;;;;32.40;20.25;;;;;;;;;;5099457;28;20434;-85
2021/03/31 05:57:07;;;;;;;31.23;18.65;;;;;;;;;;5100076;28;20036;-85
2021/03/31 05:59:33;;;;;;;33.97;20.52;;;;;;;;;;5098924;28;20028;-85
2021/03/31 06:01:59;;;;;;;35.65;19.88;;;;;;;;;;5099461;28;20062;-85
2021/03/31 06:04:25;;;;;;;29.58;19.70;;;;;;;;;;5100022;28;20110;-85
2021/03/31 06:06:51;;;;;;;33.42;20.33;;;;;;;;;;5099724;28;20024;-85
2021/03/31 06:09:17;;;;;;;33.17;19.58;;;;;;;;;;5100054;28;20028;-85
2021/03/31 06:11:48;;;;;;;31.83;19.67;;;;;;;;;;5099866;28;20024;-85
2021/03/31 06:14:14;;;;;;;27.52;18.27;;;;;;;;;;5099260;28;20020;-85
2021/03/31 06:16:46;;;;;;;34.72;19.20;;;;;;;;;;5099370;28;20046;-85
2021/03/31 06:19:12;;;;;;;;;;;;;;;;;;5100227;28;20430;-86
2021/03/31 06:21:40;;;;;;;27.67;17.55;;;;;;;;;;5098955;28;19929;-85
2021/03/31 06:24:21;;;;;;;31.25;19.40;;;;;;;;;;5098228;28;20063;-86
2021/03/31 06:26:47;;;;;;;26.95;17.70;;;;;;;;;;5098876;28;20028;-83
2021/03/31 06:29:13;;;;;;;26.17;18.05;;;;;;;;;;5098930;28;20108;-84
2021/03/31 06:31:41;;;;;;;33.13;17.77;;;;;;;;;;5099267;28;20111;-86
2021/03/31 06:34:08;;;;;;;31.02;20.20;;;;;;;;;;5099148;28;20153;-83
2021/03/31 06:36:38;;;;;;;27.35;17.65;;;;;;;;;;5099333;28;20045;-84
2021/03/31 06:39:21;;;;;;;24.05;16.15;;;;;;;;;;5099009;28;20023;-84
2021/03/31 06:41:51;;;;;;;23.70;15.25;;;;;;;;;;5098789;28;20039;-84
2021/03/31 06:44:29;;;;;;;25.98;16.15;;;;;;;;;;5098825;28;20452;-83
2021/03/31 06:49:40;;;;;;;24.58;14.85;;;;;;;;;;5098723;28;20103;-84
2021/03/31 06:52:07;;;;;;;26.92;17.20;;;;;;;;;;5098877;28;20333;-87
2021/03/31 06:54:53;;;;;;;23.02;17.08;;;;;;;;;;5098877;28;20031;-87
2021/03/31 06:57:23;;;;;;;26.40;18.92;;;;;;;;;;5098799;28;20035;-87
2021/03/31 06:59:56;;;;;;;25.58;17.30;;;;;;;;;;5098920;28;20058;-87
2021/03/31 07:02:23;;;;;;;25.60;17.30;;;;;;;;;;5098356;28;20122;-87
2021/03/31 07:04:49;;;;;;;28.98;19.70;;;;;;;;;;5098549;28;20024;-87
2021/03/31 07:07:15;;;;;;;27.52;18.60;;;;;;;;;;5097853;28;20027;-85
2021/03/31 07:09:41;;;;;;;35.00;19.80;;;;;;;;;;5098667;28;20036;-85
2021/03/31 07:12:17;;;;;;;28.35;17.17;;;;;;;;;;5098375;28;20047;-84
2021/03/31 07:14:45;;;;;;;32.28;20.05;;;;;;;;;;5098373;28;20020;-84
2021/03/31 07:17:11;;;;;;;37.30;22.67;;;;;;;;;;5097901;28;20397;-85
2021/03/31 07:19:37;;;;;;;28.02;16.65;;;;;;;;;;5098306;28;20027;-85
2021/03/31 07:22:04;;;;;;;27.60;17.40;;;;;;;;;;5098120;28;20425;-85
2021/03/31 07:24:30;;;;;;;31.75;17.77;;;;;;;;;;5098364;28;20057;-85
2021/03/31 07:26:57;;;;;;;26.85;16.40;;;;;;;;;;5098490;28;20021;-85
2021/03/31 07:29:23;;;;;;;24.73;15.10;;;;;;;;;;5097301;28;20433;-85
2021/03/31 07:31:49;;;;;;;35.22;22.42;;;;;;;;;;5098124;28;20127;-85
2021/03/31 07:34:18;;;;;;;27.50;18.25;;;;;;;;;;5098132;28;20310;-86
2021/03/31 07:36:48;;;;;;;62.42;41.42;;;;;;;;;;5096889;28;20039;-88
2021/03/31 07:39:16;;;;;;;35.30;20.52;;;;;;;;;;5097883;28;20024;-88
2021/03/31 07:41:43;;;;;;;33.95;20.90;;;;;;;;;;5096969;28;20073;-84
2021/03/31 07:44:13;;;;;;;22.67;12.75;;;;;;;;;;5098215;28;20032;-84
2021/03/31 07:46:40;;;;;;;18.90;11.40;;;;;;;;;;5097816;28;20341;-84
2021/03/31 07:49:07;;;;;;;19.55;11.38;;;;;;;;;;5097707;28;20020;-84
2021/03/31 07:51:34;;;;;;;20.98;13.55;;;;;;;;;;5097720;28;20032;-84
2021/03/31 07:54:02;;;;;;;16.40;12.02;;;;;;;;;;5096765;28;20027;-84
2021/03/31 07:56:28;;;;;;;20.23;12.40;;;;;;;;;;5096850;28;20039;-85
2021/03/31 07:59:03;;;;;;;19.00;12.00;;;;;;;;;;5097912;28;20326;-84
2021/03/31 08:01:39;;;;;;;21.52;14.73;;;;;;;;;;5096249;28;20048;-85
2021/03/31 08:04:06;;;;;;;19.50;13.10;;;;;;;;;;5097937;28;20302;-84
2021/03/31 08:06:33;;;;;;;17.83;11.27;;;;;;;;;;5097480;28;20308;-85
2021/03/31 08:09:03;;;;;;;19.75;12.07;;;;;;;;;;5097551;28;20402;-85
2021/03/31 08:11:41;;;;;;;18.08;11.75;;;;;;;;;;5096233;28;20448;-85
2021/03/31 08:14:11;;;;;;;17.40;11.68;;;;;;;;;;5096703;28;20092;-85
2021/03/31 08:16:41;;;;;;;22.92;13.07;;;;;;;;;;5097305;28;20069;-84
2021/03/31 08:19:13;;;;;;;16.27;11.23;;;;;;;;;;5100799;28;20476;-85
2021/03/31 08:21:40;;;;;;;13.80;10.85;;;;;;;;;;5101619;28;20077;-85
2021/03/31 08:24:06;;;;;;;17.27;12.02;;;;;;;;;;5101759;28;20020;-85
2021/03/31 08:26:43;;;;;;;23.58;11.55;;;;;;;;;;5101776;28;20034;-85
2021/03/31 08:29:10;;;;;;;16.63;10.75;;;;;;;;;;5100462;28;20161;-84
2021/03/31 08:31:42;;;;;;;15.82;11.13;;;;;;;;;;5101597;28;20064;-84
2021/03/31 08:34:09;;;;;;;16.75;11.15;;;;;;;;;;5101332;28;20032;-85
2021/03/31 08:36:36;;;;;;;17.55;11.50;;;;;;;;;;5101693;28;20022;-85
2021/03/31 08:39:04;;;;;;;15.50;11.25;;;;;;;;;;5101342;28;20020;-84
2021/03/31 08:41:30;;;;;;;18.42;12.05;;;;;;;;;;5100998;28;20043;-84
2021/03/31 08:44:19;;;;;;;18.30;11.60;;;;;;;;;;5100058;28;20078;-84
2021/03/31 08:46:45;;;;;;;15.18;10.60;;;;;;;;;;5101124;28;20080;-85
2021/03/31 08:49:41;;;;;;;15.05;10.95;;;;;;;;;;5100243;28;20418;-85
2021/03/31 08:52:08;;;;;;;15.55;10.40;;;;;;;;;;5002703;28;20034;-85
2021/03/31 08:54:38;;;;;;;16.75;10.30;;;;;;;;;;5002340;28;20133;-85
2021/03/31 08:57:14;;;;;;;22.67;11.88;;;;;;;;;;5002873;28;20041;-84
2021/03/31 08:59:42;;;;;;;20.27;12.43;;;;;;;;;;5002436;28;20038;-84
2021/03/31 09:02:08;;;;;;;18.15;11.98;;;;;;;;;;5018843;28;20146;-85
2021/03/31 09:04:34;;;;;;;20.85;12.05;;;;;;;;;;5002605;28;20026;-84
2021/03/31 09:07:02;;;;;;;20.08;10.65;;;;;;;;;;5018997;28;20026;-85
2021/03/31 09:09:35;;;;;;;17.33;10.00;;;;;;;;;;5019008;28;20033;-84
2021/03/31 09:12:02;;;;;;;19.45;14.05;;;;;;;;;;5019167;28;20045;-84
2021/03/31 09:14:28;;;;;;;16.73;10.10;;;;;;;;;;5002558;28;20026;-85
2021/03/31 09:16:54;;;;;;;17.20;10.30;;;;;;;;;;5002318;28;20053;-85
2021/03/31 09:19:21;;;;;;;15.18;10.48;;;;;;;;;;5018688;28;20149;-85
2021/03/31 09:21:47;;;;;;;14.88;10.80;;;;;;;;;;5001631;28;20133;-85
2021/03/31 09:24:17;;;;;;;13.65;10.38;;;;;;;;;;5002338;28;20073;-85
2021/03/31 09:26:54;;;;;;;21.00;10.50;;;;;;;;;;5018733;28;20022;-85
2021/03/31 09:29:21;;;;;;;18.98;13.07;;;;;;;;;;5088853;28;20115;-85
2021/03/31 09:31:47;;;;;;;21.80;10.95;;;;;;;;;;5100678;28;20039;-85
2021/03/31 09:34:13;;;;;;;16.63;10.18;;;;;;;;;;5099207;28;20024;-84
2021/03/31 09:36:39;;;;;;;20.88;13.43;;;;;;;;;;5100283;28;20039;-84
2021/03/31 09:39:06;;;;;;;25.65;13.70;;;;;;;;;;5100167;28;20415;-84
2021/03/31 09:41:33;;;;;;;14.10;9.77;;;;;;;;;;5099341;28;20024;-85
2021/03/31 09:43:59;;;;;;;14.15;10.25;;;;;;;;;;5098959;28;20111;-85
2021/03/31 09:46:29;;;;;;;13.45;10.00;;;;;;;;;;5100047;28;20027;-84
2021/03/31 09:48:56;;;;;;;21.40;10.82;;;;;;;;;;5100199;28;20344;-85
2021/03/31 09:51:22;;;;;;;15.52;10.93;;;;;;;;;;5100235;28;20016;-85
2021/03/31 09:53:51;;;;;;;13.82;9.68;;;;;;;;;;5099692;28;20028;-85
2021/03/31 09:56:18;;;;;;;21.50;9.05;;;;;;;;;;5098954;28;20028;-85
2021/03/31 09:58:46;;;;;;;14.20;8.13;;;;;;;;;;5098852;28;20060;-85
2021/03/31 10:01:13;;;;;;;13.45;8.77;;;;;;;;;;5099428;28;20093;-85
2021/03/31 10:03:39;;;;;;;15.52;8.63;;;;;;;;;;5098688;28;20050;-85
2021/03/31 10:06:35;;;;;;;12.45;8.18;;;;;;;;;;5099824;28;20066;-85
2021/03/31 10:09:03;;;;;;;14.52;8.73;;;;;;;;;;5017924;28;20033;-85
2021/03/31 10:11:33;;;;;;;14.60;9.80;;;;;;;;;;5018112;28;20440;-84
2021/03/31 10:14:01;;;;;;;13.95;8.80;;;;;;;;;;5017720;28;20080;-85
2021/03/31 10:16:39;;;;;;;17.65;8.38;;;;;;;;;;5017693;28;20041;-85
2021/03/31 10:19:08;;;;;;;16.75;8.52;;;;;;;;;;5017533;28;20072;-85
2021/03/31 10:21:36;;;;;;;40.60;22.95;;;;;;;;;;5018488;28;20053;-92
2021/03/31 10:24:04;;;;;;;25.73;14.00;;;;;;;;;;5018111;28;20022;-82
2021/03/31 10:26:31;;;;;;;16.73;9.55;;;;;;;;;;5013956;28;20026;-84
2021/03/31 10:29:03;;;;;;;15.52;9.98;;;;;;;;;;4990575;28;20045;-84
2021/03/31 10:31:30;;;;;;;21.17;10.68;;;;;;;;;;5000416;28;20030;-78
2021/03/31 10:33:57;;;;;;;14.23;8.73;;;;;;;;;;4998737;28;20428;-90
2021/03/31 10:36:46;;;;;;;13.70;9.00;;;;;;;;;;5012496;28;20029;-84
2021/03/31 10:49:51;;;;;;;12.82;8.05;;;;;;;;;;5094023;28;20028;-82
2021/03/31 10:52:30;;;;;;;14.57;9.18;;;;;;;;;;5098269;28;20047;-83
2021/03/31 10:54:57;;;;;;;15.18;8.98;;;;;;;;;;5081605;28;20039;-82
2021/03/31 10:57:23;;;;;;;13.25;8.38;;;;;;;;;;5082909;28;20460;-82
2021/03/31 10:59:49;;;;;;;50.20;31.13;;;;;;;;;;5086598;28;20033;-82
2021/03/31 11:02:15;;;;;;;26.52;14.65;;;;;;;;;;5076574;28;20330;-82
2021/03/31 11:04:43;;;;;;;11.98;7.60;;;;;;;;;;5077720;28;20031;-82
2021/03/31 11:07:09;;;;;;;13.38;7.65;;;;;;;;;;5077711;28;20020;-82
2021/03/31 11:09:35;;;;;;;10.50;6.45;;;;;;;;;;5076760;28;20021;-82
2021/03/31 11:12:01;;;;;;;25.52;16.58;;;;;;;;;;5077901;28;20033;-83
2021/03/31 11:14:29;;;;;;;14.77;7.63;;;;;;;;;;5077803;28;20074;-82
2021/03/31 11:25:54;;;;;;;11.23;6.93;;;;;;;;;;5077938;28;20035;-83
2021/03/31 11:28:21;;;;;;;12.13;7.55;;;;;;;;;;5077622;28;20019;-83
2021/03/31 11:30:53;;;;;;;15.45;7.75;;;;;;;;;;5077640;28;20366;-77
2021/03/31 11:33:23;;;;;;;10.05;7.30;;;;;;;;;;5077410;28;20426;-86
2021/03/31 11:35:50;;;;;;;10.65;7.40;;;;;;;;;;5077722;28;20052;-86
2021/03/31 11:38:16;;;;;;;10.45;7.22;;;;;;;;;;5081398;28;20048;-86
2021/03/31 11:40:42;;;;;;;9.98;7.82;;;;;;;;;;5094159;28;20032;-86
2021/03/31 11:43:11;;;;;;;18.67;10.70;;;;;;;;;;5080512;28;20056;-86
2021/03/31 11:45:37;;;;;;;10.30;7.03;;;;;;;;;;5091556;28;20030;-85
2021/03/31 11:48:23;;;;;;;10.40;6.50;;;;;;;;;;5114131;28;20054;-85
2021/03/31 11:50:49;;;;;;;15.13;8.52;;;;;;;;;;5101273;28;20457;-85
2021/03/31 11:53:15;;;;;;;19.80;9.52;;;;;;;;;;5095875;28;20073;-84
2021/03/31 11:55:41;;;;;;;26.40;15.32;;;;;;;;;;5097821;28;20027;-85
2021/03/31 11:58:07;;;;;;;10.13;6.82;;;;;;;;;;5094904;28;20139;-85
2021/03/31 12:00:36;;;;;;;17.00;11.13;;;;;;;;;;5077038;28;20036;-85
2021/03/31 12:03:05;;;;;;;9.88;6.03;;;;;;;;;;5076230;28;20067;-84
2021/03/31 12:05:31;;;;;;;14.55;6.78;;;;;;;;;;5077377;28;20032;-84
2021/03/31 12:07:57;;;;;;;8.85;6.18;;;;;;;;;;5077362;28;20021;-85
2021/03/31 12:10:23;;;;;;;9.18;5.72;;;;;;;;;;5076106;28;20087;-85
2021/03/31 12:12:49;;;;;;;8.85;6.35;;;;;;;;;;5077439;28;20068;-85
2021/03/31 12:15:16;;;;;;;9.07;6.10;;;;;;;;;;5077408;28;20108;-85
2021/03/31 12:17:42;;;;;;;13.75;8.48;;;;;;;;;;5077158;28;20314;-85
2021/03/31 12:20:10;;;;;;;12.90;7.07;;;;;;;;;;5076372;28;20066;-84
2021/03/31 12:22:36;;;;;;;8.10;5.68;;;;;;;;;;5077500;28;20351;-85
2021/03/31 12:25:02;;;;;;;12.32;6.22;;;;;;;;;;5077153;28;20421;-84
2021/03/31 12:27:30;;;;;;;24.88;5.65;;;;;;;;;;5077359;28;20021;-84
2021/03/31 12:29:56;;;;;;;9.00;5.35;;;;;;;;;;5077190;28;20025;-84
2021/03/31 12:32:22;;;;;;;7.97;5.63;;;;;;;;;;5075938;28;20162;-84
2021/03/31 12:34:48;;;;;;;8.77;5.40;;;;;;;;;;5077116;28;20342;-84
2021/03/31 12:37:14;;;;;;;7.65;5.30;;;;;;;;;;5077672;28;20032;-84
2021/03/31 12:39:40;;;;;;;9.10;5.70;;;;;;;;;;5077370;28;20043;-85
2021/03/31 12:42:07;;;;;;;6.82;5.03;;;;;;;;;;5076961;28;20028;-84
2021/03/31 12:44:33;;;;;;;12.23;8.60;;;;;;;;;;5077134;28;20020;-85
2021/03/31 12:47:00;;;;;;;38.83;23.17;;;;;;;;;;5076707;28;20453;-86
2021/03/31 12:49:27;;;;;;;10.18;6.22;;;;;;;;;;5090819;28;20043;-85
2021/03/31 12:52:06;;;;;;;8.80;5.38;;;;;;;;;;5082891;28;20024;-85
2021/03/31 12:54:41;;;;;;;7.70;4.72;;;;;;;;;;5076867;28;20037;-85
2021/03/31 12:57:07;;;;;;;9.65;4.78;;;;;;;;;;5077103;28;20039;-87
2021/03/31 12:59:34;;;;;;;7.97;5.40;;;;;;;;;;5076129;28;20116;-86
2021/03/31 13:02:00;;;;;;;7.80;5.10;;;;;;;;;;5075759;28;20037;-86
2021/03/31 13:04:26;;;;;;;9.98;5.15;;;;;;;;;;5081652;28;20043;-86
2021/03/31 13:06:53;;;;;;;43.00;31.60;;;;;;;;;;5091656;28;20043;-86
2021/03/31 13:09:19;;;;;;;16.60;5.72;;;;;;;;;;5079339;28;20025;-86
2021/03/31 13:11:45;;;;;;;20.80;13.45;;;;;;;;;;5080952;28;20352;-86
2021/03/31 13:22:50;;;;;;;6.45;4.60;;;;;;;;;;5080341;28;20078;-86
2021/03/31 13:25:22;;;;;;;13.07;6.18;;;;;;;;;;5090914;28;20031;-85
2021/03/31 13:35:36;;;;;;;8.73;4.72;;;;;;;;;;5096378;28;20043;-80
2021/03/31 13:38:12;;;;;;;6.93;4.63;;;;;;;;;;5097903;28;20056;-80
2021/03/31 13:40:38;;;;;;;14.25;10.35;;;;;;;;;;5099707;28;20062;-80
2021/03/31 13:43:04;;;;;;;6.32;4.10;;;;;;;;;;5098407;28;20043;-81
2021/03/31 13:45:30;;;;;;;17.60;10.05;;;;;;;;;;5099753;28;20031;-82
2021/03/31 13:48:20;;;;;;;7.82;4.80;;;;;;;;;;5099380;28;20062;-82
2021/03/31 13:50:43;;;;;;;9.68;5.00;;;;;;;;;;5098956;28;20322;-81
2021/03/31 13:53:15;;;;;;;8.23;4.75;;;;;;;;;;5099730;28;20031;-81
2021/03/31 13:55:43;;;;;;;8.63;5.38;;;;;;;;;;5099621;28;20024;-81
2021/03/31 13:58:09;;;;;;;12.13;5.57;;;;;;;;;;5099565;28;20031;-81
2021/03/31 14:00:36;;;;;;;7.45;5.10;;;;;;;;;;5099309;28;20040;-80
2021/03/31 14:03:02;;;;;;;11.57;5.10;;;;;;;;;;5099257;28;20039;-81
2021/03/31 14:05:28;;;;;;;7.88;4.88;;;;;;;;;;5099547;28;20020;-81
2021/03/31 14:07:54;;;;;;;7.82;4.95;;;;;;;;;;5099053;28;20318;-81
2021/03/31 14:10:21;;;;;;;5.88;4.63;;;;;;;;;;5099297;28;20013;-81
2021/03/31 14:12:50;;;;;;;6.65;4.75;;;;;;;;;;5099392;28;20028;-81
2021/03/31 14:15:17;;;;;;;6.38;4.93;;;;;;;;;;5098847;28;20377;-81
2021/03/31 14:17:43;;;;;;;9.18;5.07;;;;;;;;;;5099006;28;20028;-81
2021/03/31 14:20:12;;;;;;;8.32;5.15;;;;;;;;;;5099149;28;20420;-81
2021/03/31 14:22:39;;;;;;;12.18;4.82;;;;;;;;;;5098899;28;20032;-81
2021/03/31 14:25:06;;;;;;;9.95;5.30;;;;;;;;;;5099136;28;20016;-81
2021/03/31 14:27:33;;;;;;;18.00;11.95;;;;;;;;;;5098957;28;20016;-81
2021/03/31 14:29:59;;;;;;;7.75;5.47;;;;;;;;;;5097820;28;20027;-81
2021/03/31 14:32:25;;;;;;;8.80;5.32;;;;;;;;;;5098569;28;20024;-82
2021/03/31 14:34:52;;;;;;;12.63;8.20;;;;;;;;;;5097597;28;20043;-80
2021/03/31 14:37:18;;;;;;;8.35;5.18;;;;;;;;;;5098832;28;20059;-80
2021/03/31 14:39:45;;;;;;;7.72;5.63;;;;;;;;;;5098732;28;20299;-80
2021/03/31 14:42:11;;;;;;;10.35;5.70;;;;;;;;;;5097103;28;20052;-80
2021/03/31 14:44:37;;;;;;;9.70;5.93;;;;;;;;;;5098883;28;20099;-79
2021/03/31 14:47:05;;;;;;;6.43;5.10;;;;;;;;;;5098378;28;20012;-79
2021/03/31 14:49:31;;;;;;;10.13;5.40;;;;;;;;;;5097396;28;20036;-79
2021/03/31 15:00:06;;;;;;;7.47;4.70;;;;;;;;;;5098432;28;20038;-80
2021/03/31 15:02:32;;;;;;;8.38;4.82;;;;;;;;;;5097830;28;20422;-79
2021/03/31 15:04:58;;;;;;;8.85;4.72;;;;;;;;;;5096777;28;20154;-79
2021/03/31 15:07:24;;;;;;;7.43;4.50;;;;;;;;;;5097798;28;20028;-79
2021/03/31 15:09:51;;;;;;;16.65;8.50;;;;;;;;;;5097686;28;20093;-79
2021/03/31 15:12:17;;;;;;;10.77;6.13;;;;;;;;;;5098017;28;20028;-79
2021/03/31 15:14:43;;;;;;;9.85;5.18;;;;;;;;;;5096925;28;20034;-80
2021/03/31 15:17:09;;;;;;;6.18;3.63;;;;;;;;;;5097984;28;20031;-79